1918 NOT_NAMED (1918240N18142)


IBTrACS version v04r00. Visit IBTrACS website for data access.
Please direct all questions to the IBTrACS Q and A forum

Storm track - Intensity - Wind Radii - Intensity Data - Source Data - All data

Summary Information

Storm ID 1918240N18142
Start Aug 27 22Z
End Aug 29 22Z
ATCF IDs
Track status Best track data.

Storm track plot

Map of storm track

Intensity plots

No Intensity information for this storm


Radial wind information

No radial wind information for this storm


Position and Intensity Table

BASIN ISO_TIME_________ NATURE LAT LON
degrees north degrees east
WP 1918-08-27 22:00:00 NR 17.60 142.00
WP 1918-08-28 00:00:00 NR 18.10 141.49
WP 03:00:00 NR 18.85 140.73
WP 06:00:00 NR 19.60 139.98
WP 09:00:00 NR 20.35 139.24
WP 10:00:00 NR 20.60 139.00
WP 12:00:00 NR 21.10 138.53
WP 15:00:00 NR 21.86 137.84
WP 18:00:00 NR 22.62 137.20
WP 21:00:00 NR 23.36 136.59
WP 22:00:00 NR 23.60 136.40
WP 1918-08-29 00:00:00 NR 24.09 136.01
WP 03:00:00 NR 24.80 135.47
WP 06:00:00 NR 25.50 134.98
WP 09:00:00 NR 26.18 134.54
WP 10:00:00 NR 26.40 134.40
WP 12:00:00 NR 26.83 134.15
WP 15:00:00 NR 27.47 133.80
WP 18:00:00 NR 28.09 133.49
WP 21:00:00 NR 28.70 133.20
WP 22:00:00 NR 28.90 133.10

Source Information

Agency Information
USA
TOKYO
CMA
HKO
NEWDELHI
REUNION
BOM
NADI
WELLINGTON
DS824
TD9636 cons_worldwide_trop_cyclone_18710101-19891231-003:Line=5765
TD9635
NEUMANN
MLC

All available IBTrACS Data

SEASON BASIN SUBBASIN ISO_TIME_________ NATURE LAT LON DIST2LAND LANDFALL IFLAG USA SSHS TD9636 LAT TD9636 LON TD9636 STAGE STORM SPEED STORM DIR
Year degrees north degrees east km km 1 degrees north degrees east kts degrees
1918 WP MM 1918-08-27 22:00:00 NR 17.60 142.00 1870 1799 __________O___ -1 17.60 142.00 7 21 316
1918 WP MM 1918-08-28 00:00:00 NR 18.10 141.49 1799 1688 __________P___ -1 18.10 141.49 7 21 316
1918 WP MM 03:00:00 NR 18.85 140.73 1688 1573 __________P___ -1 18.85 140.73 7 21 316
1918 WP MM 06:00:00 NR 19.60 139.98 1573 1463 __________P___ -1 19.60 139.98 7 21 317
1918 WP MM 09:00:00 NR 20.35 139.24 1463 1424 __________P___ -1 20.35 139.24 7 20 318
1918 WP MM 10:00:00 NR 20.60 139.00 1424 1349 __________O___ -1 20.60 139.00 7 20 319
1918 WP MM 12:00:00 NR 21.10 138.53 1349 1236 __________P___ -1 21.10 138.53 7 20 319
1918 WP MM 15:00:00 NR 21.86 137.84 1236 1137 __________P___ -1 21.86 137.84 7 20 321
1918 WP MM 18:00:00 NR 22.62 137.20 1137 1029 __________P___ -1 22.62 137.20 7 19 322
1918 WP MM 21:00:00 NR 23.36 136.59 1029 999 __________P___ -1 23.36 136.59 7 18 323
1918 WP MM 22:00:00 NR 23.60 136.40 999 930 __________O___ -1 23.60 136.40 3 18 324
1918 WP MM 1918-08-29 00:00:00 NR 24.09 136.01 930 837 __________P___ -1 24.09 136.01 3 18 325
1918 WP MM 03:00:00 NR 24.80 135.47 837 744 __________P___ -1 24.80 135.47 3 17 326
1918 WP MM 06:00:00 NR 25.50 134.98 744 651 __________P___ -1 25.50 134.98 3 16 329
1918 WP MM 09:00:00 NR 26.18 134.54 651 627 __________P___ -1 26.18 134.54 3 16 330
1918 WP MM 10:00:00 NR 26.40 134.40 627 573 __________O___ -1 26.40 134.40 4 15 332
1918 WP MM 12:00:00 NR 26.83 134.15 573 492 __________P___ -1 26.83 134.15 4 14 334
1918 WP MM 15:00:00 NR 27.47 133.80 492 420 __________P___ -1 27.47 133.80 4 14 335
1918 WP MM 18:00:00 NR 28.09 133.49 420 347 __________P___ -1 28.09 133.49 4 13 336
1918 WP MM 21:00:00 NR 28.70 133.20 347 323 __________P___ -1 28.70 133.20 4 13 337
1918 WP MM 22:00:00 NR 28.90 133.10 323 __________O___ -1 28.90 133.10 4 13 337